createdAt,value
2018-04-08T00:00:47.137Z,0.00
2018-04-08T00:01:47.364Z,0.00
2018-04-08T00:02:47.568Z,0.00
2018-04-08T00:03:47.785Z,0.00
2018-04-08T00:04:49.716Z,0.00
2018-04-08T00:05:50.715Z,0.00
2018-04-08T00:06:48.312Z,0.00
2018-04-08T00:07:48.525Z,0.00
2018-04-08T00:08:48.742Z,0.00
2018-04-08T00:09:49.980Z,0.00
2018-04-08T00:10:50.731Z,0.00
2018-04-08T00:11:49.363Z,0.00
2018-04-08T00:12:52.208Z,0.00
2018-04-08T00:13:51.224Z,0.00
2018-04-08T00:14:49.816Z,0.00
2018-04-08T00:15:50.037Z,0.00
2018-04-08T00:16:50.249Z,0.00
2018-04-08T00:17:50.459Z,0.00
2018-04-08T00:18:52.222Z,0.00
2018-04-08T00:19:54.713Z,0.00
2018-04-08T00:20:53.754Z,0.00
2018-04-08T00:21:57.087Z,0.00
2018-04-08T00:22:53.214Z,0.00
2018-04-08T00:23:52.439Z,0.00
2018-04-08T00:24:52.679Z,0.00
2018-04-08T00:25:59.712Z,0.00
2018-04-08T00:26:52.918Z,0.00
2018-04-08T00:27:52.126Z,0.00
2018-04-08T00:28:54.214Z,0.00
2018-04-08T00:29:54.212Z,0.00
2018-04-08T00:30:56.237Z,0.00
2018-04-08T00:31:52.881Z,0.00
2018-04-08T00:32:53.028Z,0.00
2018-04-08T00:33:53.239Z,0.00
2018-04-08T00:34:55.250Z,0.00
2018-04-08T00:35:53.669Z,0.00
2018-04-08T00:36:53.880Z,0.00
2018-04-08T00:37:55.709Z,0.00
2018-04-08T00:38:54.290Z,0.00
2018-04-08T00:39:54.555Z,0.00
2018-04-08T00:40:56.210Z,0.00
2018-04-08T00:41:54.917Z,0.00
2018-04-08T00:42:56.753Z,0.00
2018-04-08T00:43:59.215Z,0.00
2018-04-08T00:44:55.445Z,0.00
2018-04-08T00:45:57.214Z,0.00
2018-04-08T00:46:55.803Z,0.00
2018-04-08T00:47:57.712Z,0.00
2018-04-08T00:48:56.225Z,0.00
2018-04-08T00:49:56.367Z,0.00
2018-04-08T00:50:59.214Z,0.00
2018-04-08T00:52:03.216Z,0.00
2018-04-08T00:52:57.814Z,0.00
2018-04-08T00:53:58.718Z,0.00
2018-04-08T00:54:58.190Z,0.00
2018-04-08T00:55:57.401Z,0.00
2018-04-08T00:56:59.217Z,0.00
2018-04-08T00:57:57.798Z,0.00
2018-04-08T00:59:13.724Z,0.00
2018-04-08T00:59:58.171Z,0.00
2018-04-08T01:00:58.383Z,0.00
2018-04-08T01:02:00.234Z,0.00
2018-04-08T01:02:58.849Z,0.00
2018-04-08T01:03:58.943Z,0.00
2018-04-08T01:04:59.156Z,0.00
2018-04-08T01:05:59.370Z,0.00
2018-04-08T01:06:59.596Z,0.00
2018-04-08T01:07:59.866Z,0.00
2018-04-08T01:08:59.956Z,0.00
2018-04-08T01:10:11.751Z,0.00
2018-04-08T01:11:02.217Z,0.00
2018-04-08T01:12:00.559Z,0.00
2018-04-08T01:13:00.810Z,0.00
2018-04-08T01:14:00.999Z,0.00
2018-04-08T01:15:02.714Z,0.00
2018-04-08T01:16:04.213Z,0.00
2018-04-08T01:17:03.209Z,0.00
2018-04-08T01:18:03.207Z,0.00
2018-04-08T01:19:03.715Z,0.00
2018-04-08T01:20:03.714Z,0.00
2018-04-08T01:21:03.710Z,0.00
2018-04-08T01:22:02.161Z,0.00
2018-04-08T01:23:02.378Z,0.00
2018-04-08T01:24:04.231Z,0.00
2018-04-08T01:25:02.821Z,0.00
2018-04-08T01:26:05.727Z,0.00
2018-04-08T01:27:03.199Z,0.00
2018-04-08T01:28:05.215Z,0.00
2018-04-08T01:29:03.599Z,0.00
2018-04-08T01:30:03.783Z,0.00
2018-04-08T01:31:04.047Z,0.00
2018-04-08T01:32:05.207Z,0.00
2018-04-08T01:33:06.212Z,0.00
2018-04-08T01:34:04.547Z,0.00
2018-04-08T01:35:04.760Z,0.00
2018-04-08T01:36:07.727Z,0.00
2018-04-08T01:37:06.733Z,0.00
2018-04-08T01:38:07.231Z,0.00
2018-04-08T01:39:05.441Z,0.00
2018-04-08T01:40:05.651Z,0.00
2018-04-08T01:41:05.863Z,0.00
2018-04-08T01:42:07.732Z,0.00
2018-04-08T01:43:06.204Z,0.00
2018-04-08T01:44:09.218Z,0.00
2018-04-08T01:45:09.233Z,0.00
2018-04-08T01:46:06.751Z,0.00
2018-04-08T01:47:06.894Z,0.00
2018-04-08T01:48:07.026Z,0.00
2018-04-08T01:49:07.132Z,0.00
2018-04-08T01:50:08.348Z,0.00
2018-04-08T01:51:09.250Z,0.00
2018-04-08T01:52:07.711Z,0.00
2018-04-08T01:53:07.802Z,0.00
2018-04-08T01:54:11.719Z,0.00
2018-04-08T01:55:08.170Z,0.00
2018-04-08T01:56:08.406Z,0.00
2018-04-08T01:57:08.617Z,0.00
2018-04-08T01:58:09.306Z,0.00
2018-04-08T01:59:10.709Z,0.00
2018-04-08T02:00:09.133Z,0.00
2018-04-08T02:01:11.217Z,0.00
2018-04-08T02:02:09.427Z,0.00
2018-04-08T02:03:11.233Z,0.00
2018-04-08T02:04:09.817Z,0.00
2018-04-08T02:05:10.039Z,0.00
2018-04-08T02:06:12.209Z,0.00
2018-04-08T02:07:12.252Z,0.00
2018-04-08T02:08:13.245Z,0.00
2018-04-08T02:09:10.803Z,0.00
2018-04-08T02:10:11.007Z,0.00
2018-04-08T02:11:11.218Z,0.00
2018-04-08T02:12:11.465Z,0.00
2018-04-08T02:13:13.209Z,0.00
2018-04-08T02:14:11.693Z,0.00
2018-04-08T02:15:11.800Z,0.00
2018-04-08T02:16:19.740Z,0.00
2018-04-08T02:17:12.215Z,0.00
2018-04-08T02:18:12.432Z,0.00
2018-04-08T02:19:12.704Z,0.00
2018-04-08T02:20:13.810Z,0.00
2018-04-08T02:21:14.737Z,0.00
2018-04-08T02:22:16.765Z,0.00
2018-04-08T02:23:15.223Z,0.00
2018-04-08T02:24:15.221Z,0.00
2018-04-08T02:25:13.679Z,0.00
2018-04-08T02:26:16.729Z,0.00
2018-04-08T02:27:19.712Z,0.00
2018-04-08T02:28:14.287Z,0.00
2018-04-08T02:29:21.220Z,0.00
2018-04-08T02:30:14.678Z,0.00
2018-04-08T02:31:30.711Z,0.00
2018-04-08T02:32:15.052Z,0.00
2018-04-08T02:33:17.212Z,0.00
2018-04-08T02:34:17.225Z,0.00
2018-04-08T02:35:19.227Z,0.00
2018-04-08T02:36:15.686Z,0.00
2018-04-08T02:37:15.886Z,0.00
2018-04-08T02:38:17.751Z,0.00
2018-04-08T02:39:19.712Z,0.00
2018-04-08T02:40:16.421Z,0.00
2018-04-08T02:41:17.676Z,0.00
2018-04-08T02:42:18.732Z,0.00
2018-04-08T02:43:16.959Z,0.00
2018-04-08T02:44:22.711Z,0.00
2018-04-08T02:45:17.325Z,0.00
2018-04-08T02:46:17.433Z,0.00
2018-04-08T02:47:19.216Z,0.00
2018-04-08T02:48:17.805Z,0.00
2018-04-08T02:49:19.035Z,0.00
2018-04-08T02:50:18.273Z,0.00
2018-04-08T02:51:18.502Z,0.00
2018-04-08T02:52:22.255Z,0.00
2018-04-08T02:53:26.211Z,0.00
2018-04-08T02:54:18.869Z,0.00
2018-04-08T02:55:18.950Z,0.00
2018-04-08T02:56:20.663Z,0.00
2018-04-08T02:57:21.215Z,0.00
2018-04-08T02:58:21.231Z,0.00
2018-04-08T02:59:26.215Z,0.00
2018-04-08T03:00:21.215Z,0.00
2018-04-08T03:01:22.716Z,0.00
2018-04-08T03:02:23.719Z,0.00
2018-04-08T03:03:20.207Z,0.00
2018-04-08T03:04:22.218Z,0.00
2018-04-08T03:05:20.457Z,0.00
2018-04-08T03:06:22.218Z,0.00
2018-04-08T03:07:22.259Z,0.00
2018-04-08T03:08:21.841Z,0.00
2018-04-08T03:09:22.759Z,0.00
2018-04-08T03:10:21.116Z,0.00
2018-04-08T03:11:21.325Z,0.00
2018-04-08T03:12:24.034Z,0.00
2018-04-08T03:13:23.717Z,0.00
2018-04-08T03:14:21.940Z,0.00
2018-04-08T03:15:28.715Z,0.00
2018-04-08T03:16:22.384Z,0.00
2018-04-08T03:17:22.476Z,0.00
2018-04-08T03:18:22.726Z,0.00
2018-04-08T03:19:28.707Z,0.00
2018-04-08T03:20:23.729Z,0.00
2018-04-08T03:21:23.214Z,0.00
2018-04-08T03:22:23.463Z,0.00
2018-04-08T03:23:25.678Z,0.00
2018-04-08T03:24:23.780Z,0.00
2018-04-08T03:25:25.708Z,0.00
2018-04-08T03:26:25.189Z,0.00
2018-04-08T03:27:26.217Z,0.00
2018-04-08T03:28:24.563Z,0.00
2018-04-08T03:29:28.713Z,0.00
2018-04-08T03:30:25.919Z,0.00
2018-04-08T03:31:31.714Z,0.00
2018-04-08T03:32:27.219Z,0.00
2018-04-08T03:33:25.414Z,0.00
2018-04-08T03:34:27.242Z,0.00
2018-04-08T03:35:28.671Z,0.00
2018-04-08T03:36:27.051Z,0.00
2018-04-08T03:37:27.714Z,0.00
2018-04-08T03:38:28.222Z,0.00
2018-04-08T03:39:28.271Z,0.00
2018-04-08T03:40:28.213Z,0.00
2018-04-08T03:41:26.786Z,0.00
2018-04-08T03:42:28.709Z,0.00
2018-04-08T03:43:28.713Z,0.00
2018-04-08T03:44:29.211Z,0.00
2018-04-08T03:45:27.536Z,0.00
2018-04-08T03:46:27.782Z,0.00
2018-04-08T03:47:27.883Z,0.00
2018-04-08T03:48:28.134Z,0.00
2018-04-08T03:49:28.257Z,0.00
2018-04-08T03:50:28.484Z,0.00
2018-04-08T03:51:30.271Z,0.00
2018-04-08T03:52:29.750Z,0.00
2018-04-08T03:53:29.046Z,0.00
2018-04-08T03:54:29.150Z,0.00
2018-04-08T03:55:31.230Z,0.00
2018-04-08T03:56:29.594Z,0.00
2018-04-08T03:57:31.235Z,0.00
2018-04-08T03:58:29.823Z,0.00
2018-04-08T03:59:30.037Z,0.00
2018-04-08T04:00:32.229Z,0.00
2018-04-08T04:01:32.218Z,0.00
2018-04-08T04:02:34.257Z,0.00
2018-04-08T04:03:30.681Z,0.00
2018-04-08T04:04:32.727Z,0.00
2018-04-08T04:05:32.066Z,0.00
2018-04-08T04:06:31.281Z,0.00
2018-04-08T04:07:31.503Z,0.00
2018-04-08T04:08:36.217Z,0.00
2018-04-08T04:09:31.794Z,0.00
2018-04-08T04:10:35.726Z,0.00
2018-04-08T04:11:33.715Z,0.00
2018-04-08T04:12:35.226Z,0.00
2018-04-08T04:13:32.604Z,0.00
2018-04-08T04:14:33.718Z,0.00
2018-04-08T04:15:44.712Z,0.00
2018-04-08T04:16:33.049Z,0.00
2018-04-08T04:17:35.215Z,0.00
2018-04-08T04:18:40.221Z,0.00
2018-04-08T04:19:34.718Z,0.00
2018-04-08T04:20:33.844Z,0.00
2018-04-08T04:21:35.731Z,0.00
2018-04-08T04:22:34.404Z,0.00
2018-04-08T04:23:36.209Z,0.00
2018-04-08T04:24:36.215Z,0.00
2018-04-08T04:25:36.235Z,0.00
2018-04-08T04:26:36.212Z,0.00
2018-04-08T04:27:34.840Z,0.00
2018-04-08T04:28:35.948Z,0.00
2018-04-08T04:29:37.720Z,0.00
2018-04-08T04:30:39.238Z,0.00
2018-04-08T04:31:35.469Z,5.63
2018-04-08T04:32:38.198Z,5.63
2018-04-08T04:33:35.917Z,5.63
2018-04-08T04:34:37.713Z,5.63
2018-04-08T04:35:38.238Z,5.63
2018-04-08T04:36:36.457Z,5.63
2018-04-08T04:37:44.252Z,11.25
2018-04-08T04:38:43.724Z,11.25
2018-04-08T04:39:38.785Z,11.25
2018-04-08T04:40:38.713Z,11.25
2018-04-08T04:41:40.710Z,16.88
2018-04-08T04:42:41.000Z,16.88
2018-04-08T04:43:42.164Z,16.88
2018-04-08T04:44:38.641Z,22.50
2018-04-08T04:45:37.861Z,22.50
2018-04-08T04:46:39.767Z,28.13
2018-04-08T04:47:38.231Z,28.13
2018-04-08T04:48:38.476Z,33.75
2018-04-08T04:49:38.546Z,33.75
2018-04-08T04:50:41.723Z,39.38
2018-04-08T04:51:40.721Z,39.38
2018-04-08T04:52:39.717Z,45.00
2018-04-08T04:53:39.184Z,45.00
2018-04-08T04:54:41.250Z,50.63
2018-04-08T04:55:40.924Z,56.25
2018-04-08T04:56:42.674Z,56.25
2018-04-08T04:57:43.718Z,61.88
2018-04-08T04:58:41.748Z,67.50
2018-04-08T04:59:40.218Z,73.13
2018-04-08T05:00:46.264Z,78.75
2018-04-08T05:01:42.221Z,78.75
2018-04-08T05:02:42.240Z,84.38
2018-04-08T05:03:42.754Z,90.00
2018-04-08T05:04:41.054Z,95.63
2018-04-08T05:05:43.236Z,101.25
2018-04-08T05:06:43.227Z,106.88
2018-04-08T05:07:49.239Z,106.88
2018-04-08T05:08:41.835Z,112.50
2018-04-08T05:09:43.768Z,112.50
2018-04-08T05:10:43.717Z,118.13
2018-04-08T05:11:42.313Z,123.75
2018-04-08T05:12:44.228Z,129.38
2018-04-08T05:13:42.701Z,135.00
2018-04-08T05:14:44.738Z,140.63
2018-04-08T05:15:43.121Z,146.25
2018-04-08T05:16:44.774Z,151.88
2018-04-08T05:17:50.234Z,157.50
2018-04-08T05:18:49.557Z,163.13
2018-04-08T05:19:43.755Z,168.75
2018-04-08T05:20:46.738Z,174.38
2018-04-08T05:21:45.738Z,241.88
2018-04-08T05:22:45.716Z,376.88
2018-04-08T05:23:46.206Z,421.88
2018-04-08T05:24:47.223Z,444.38
2018-04-08T05:25:44.743Z,461.25
2018-04-08T05:26:55.734Z,489.38
2018-04-08T05:27:46.714Z,511.88
2018-04-08T05:28:45.286Z,528.75
2018-04-08T05:29:45.506Z,551.25
2018-04-08T05:30:47.212Z,573.75
2018-04-08T05:31:47.726Z,596.25
2018-04-08T05:32:46.079Z,613.13
2018-04-08T05:33:46.291Z,630.00
2018-04-08T05:34:46.490Z,652.50
2018-04-08T05:35:46.710Z,675.00
2018-04-08T05:36:46.924Z,691.88
2018-04-08T05:37:48.713Z,714.38
2018-04-08T05:38:47.299Z,736.88
2018-04-08T05:39:47.517Z,753.75
2018-04-08T05:40:47.722Z,776.25
2018-04-08T05:41:47.927Z,798.75
2018-04-08T05:42:48.136Z,826.88
2018-04-08T05:43:48.348Z,849.38
2018-04-08T05:44:48.555Z,871.88
2018-04-08T05:45:48.771Z,905.63
2018-04-08T05:46:49.017Z,928.13
2018-04-08T05:47:49.122Z,950.63
2018-04-08T05:48:49.352Z,984.38
2018-04-08T05:49:49.557Z,1001.25
2018-04-08T05:50:49.761Z,1040.63
2018-04-08T05:51:49.981Z,1051.88
2018-04-08T05:52:50.187Z,1068.75
2018-04-08T05:53:51.394Z,1096.88
2018-04-08T05:54:50.614Z,1119.38
2018-04-08T05:55:50.827Z,1164.38
2018-04-08T05:56:51.039Z,1181.25
2018-04-08T05:57:51.265Z,1215.00
2018-04-08T05:58:51.465Z,1231.88
2018-04-08T05:59:51.683Z,1248.75
2018-04-08T06:00:51.898Z,1276.88
2018-04-08T06:01:52.107Z,1305.00
2018-04-08T06:02:52.334Z,1316.25
2018-04-08T06:03:52.571Z,1344.38
2018-04-08T06:04:52.778Z,1372.50
2018-04-08T06:05:52.952Z,1400.63
2018-04-08T06:06:53.166Z,1428.75
2018-04-08T06:07:53.384Z,1451.25
2018-04-08T06:08:53.590Z,1496.25
2018-04-08T06:09:53.795Z,1513.13
2018-04-08T06:10:54.018Z,1518.75
2018-04-08T06:11:54.228Z,1524.38
2018-04-08T06:12:54.447Z,1530.00
2018-04-08T06:13:54.666Z,1530.00
2018-04-08T06:14:54.886Z,1558.13
2018-04-08T06:15:55.101Z,1580.63
2018-04-08T06:16:55.319Z,1614.38
2018-04-08T06:17:55.524Z,1659.38
2018-04-08T06:18:55.742Z,1693.13
2018-04-08T06:19:55.951Z,1726.88
2018-04-08T06:20:56.160Z,1783.13
2018-04-08T06:21:58.215Z,1811.25
2018-04-08T06:22:56.556Z,1861.88
2018-04-08T06:23:56.771Z,1890.00
2018-04-08T06:24:57.016Z,1918.13
2018-04-08T06:25:57.223Z,1946.25
2018-04-08T06:26:59.231Z,1968.75
2018-04-08T06:27:57.590Z,1974.38
2018-04-08T06:28:57.809Z,1985.63
2018-04-08T06:29:58.027Z,1996.88
2018-04-08T06:30:58.238Z,2019.38
2018-04-08T06:31:58.462Z,2019.38
2018-04-08T06:33:00.224Z,2047.50
2018-04-08T06:33:58.805Z,2075.63
2018-04-08T06:34:59.028Z,2098.13
2018-04-08T06:35:59.240Z,2154.38
2018-04-08T06:36:59.498Z,2216.25
2018-04-08T06:37:59.690Z,2261.25
2018-04-08T06:39:01.723Z,2295.00
2018-04-08T06:40:00.073Z,2334.38
2018-04-08T06:41:00.297Z,2356.88
2018-04-08T06:42:00.512Z,2390.63
2018-04-08T06:43:00.741Z,2418.75
2018-04-08T06:44:00.982Z,2413.13
2018-04-08T06:45:02.718Z,2446.88
2018-04-08T06:46:03.272Z,2452.50
2018-04-08T06:47:01.444Z,2486.25
2018-04-08T06:48:01.659Z,2520.00
2018-04-08T06:49:03.738Z,2548.13
2018-04-08T06:50:02.065Z,2576.25
2018-04-08T06:51:04.688Z,2610.00
2018-04-08T06:52:02.439Z,2638.13
2018-04-08T06:53:02.536Z,2666.25
2018-04-08T06:54:02.753Z,2683.13
2018-04-08T06:55:02.996Z,2688.75
2018-04-08T06:56:04.729Z,2716.88
2018-04-08T06:57:11.241Z,2728.13
2018-04-08T06:58:05.217Z,2745.00
2018-04-08T06:59:03.692Z,2756.25
2018-04-08T07:00:05.780Z,2784.38
2018-04-08T07:01:05.722Z,2812.50
2018-04-08T07:02:04.234Z,2829.38
2018-04-08T07:03:08.240Z,2863.13
2018-04-08T07:04:07.264Z,2891.25
2018-04-08T07:05:06.722Z,2913.75
2018-04-08T07:06:08.718Z,2925.00
2018-04-08T07:07:05.181Z,2947.50
2018-04-08T07:08:05.455Z,2975.63
2018-04-08T07:09:08.263Z,2998.13
2018-04-08T07:10:06.880Z,3015.00
2018-04-08T07:11:08.759Z,3037.50
2018-04-08T07:12:09.773Z,3065.63
2018-04-08T07:13:08.262Z,3088.13
2018-04-08T07:14:08.214Z,3110.63
2018-04-08T07:15:08.737Z,3133.13
2018-04-08T07:16:07.141Z,3150.00
2018-04-08T07:17:10.239Z,3166.88
2018-04-08T07:18:08.489Z,3195.00
2018-04-08T07:19:15.223Z,3206.25
2018-04-08T07:20:07.933Z,3223.13
2018-04-08T07:21:09.716Z,3251.25
2018-04-08T07:22:10.223Z,3251.25
2018-04-08T07:23:10.254Z,3268.13
2018-04-08T07:24:10.225Z,3296.25
2018-04-08T07:25:08.808Z,3318.75
2018-04-08T07:26:09.026Z,3335.63
2018-04-08T07:27:09.250Z,3369.38
2018-04-08T07:28:11.226Z,3375.00
2018-04-08T07:29:09.568Z,3397.50
2018-04-08T07:30:09.798Z,3420.00
2018-04-08T07:31:10.016Z,3442.50
2018-04-08T07:32:10.249Z,3448.13
2018-04-08T07:33:10.489Z,3481.88
2018-04-08T07:34:14.227Z,3504.38
2018-04-08T07:35:10.951Z,3538.13
2018-04-08T07:36:12.735Z,3583.13
2018-04-08T07:37:15.228Z,3583.13
2018-04-08T07:38:12.582Z,3611.25
2018-04-08T07:39:15.735Z,3639.38
2018-04-08T07:40:14.777Z,3639.38
2018-04-08T07:41:26.751Z,3661.88
2018-04-08T07:42:15.763Z,3690.00
2018-04-08T07:43:12.376Z,3723.75
2018-04-08T07:44:12.655Z,3723.75
2018-04-08T07:45:15.720Z,3751.88
2018-04-08T07:46:14.724Z,3746.25
2018-04-08T07:47:13.191Z,3774.38
2018-04-08T07:48:17.425Z,3768.75
2018-04-08T07:49:13.658Z,3774.38
2018-04-08T07:50:15.724Z,3796.88
2018-04-08T07:51:14.077Z,3808.13
2018-04-08T07:52:14.349Z,3836.25
2018-04-08T07:53:17.217Z,3870.00
2018-04-08T07:54:16.223Z,3875.63
2018-04-08T07:55:15.815Z,3926.25
2018-04-08T07:56:16.037Z,3943.13
2018-04-08T07:57:17.250Z,3971.25
2018-04-08T07:58:15.465Z,3982.50
2018-04-08T07:59:17.261Z,3988.13
2018-04-08T08:00:15.887Z,4010.63
2018-04-08T08:01:16.103Z,4055.63
2018-04-08T08:02:20.219Z,4083.75
2018-04-08T08:03:16.576Z,4111.88
2018-04-08T08:04:17.671Z,4111.88
2018-04-08T08:05:18.798Z,4117.50
2018-04-08T08:06:18.750Z,4111.88
2018-04-08T08:07:17.356Z,4117.50
2018-04-08T08:08:19.218Z,4117.50
2018-04-08T08:09:19.768Z,4128.75
2018-04-08T08:10:20.177Z,4145.63
2018-04-08T08:11:19.742Z,4185.00
2018-04-08T08:12:19.775Z,4252.50
2018-04-08T08:13:22.258Z,4280.63
2018-04-08T08:14:18.629Z,4308.75
2018-04-08T08:15:20.726Z,4336.88
2018-04-08T08:16:19.685Z,4342.50
2018-04-08T08:17:19.350Z,4342.50
2018-04-08T08:18:22.707Z,4336.88
2018-04-08T08:19:22.040Z,4336.88
2018-04-08T08:20:19.954Z,4336.88
2018-04-08T08:21:21.189Z,4348.13
2018-04-08T08:22:20.421Z,4370.63
2018-04-08T08:23:21.705Z,4370.63
2018-04-08T08:24:23.678Z,4393.13
2018-04-08T08:25:21.058Z,4376.25
2018-04-08T08:26:21.457Z,4387.50
2018-04-08T08:27:21.489Z,4404.38
2018-04-08T08:28:23.228Z,4393.13
2018-04-08T08:29:23.719Z,4410.00
2018-04-08T08:30:24.773Z,4421.25
2018-04-08T08:31:22.286Z,4432.50
2018-04-08T08:32:22.524Z,4438.13
2018-04-08T08:33:24.729Z,4455.00
2018-04-08T08:34:23.019Z,4488.75
2018-04-08T08:35:26.197Z,4522.50
2018-04-08T08:37:57.462Z,4578.75
2018-04-08T08:38:56.412Z,4606.88
2018-04-08T08:39:55.820Z,4606.88
2018-04-08T08:40:57.466Z,4590.00
2018-04-08T08:41:58.018Z,4578.75
2018-04-08T08:42:56.254Z,4561.88
2018-04-08T08:43:58.464Z,4573.13
2018-04-08T08:45:05.425Z,4595.63
2018-04-08T08:45:56.911Z,4612.50
2018-04-08T08:46:58.141Z,4612.50
2018-04-08T08:47:57.369Z,4623.75
2018-04-08T08:49:01.465Z,4651.88
2018-04-08T08:50:01.469Z,4657.50
2018-04-08T08:50:59.964Z,4657.50
2018-04-08T08:51:59.967Z,4640.63
2018-04-08T08:53:01.964Z,4612.50
2018-04-08T08:54:00.485Z,4618.13
2018-04-08T08:55:00.556Z,4635.00
2018-04-08T08:56:01.519Z,4657.50
2018-04-08T08:57:01.272Z,4685.63
2018-04-08T08:57:59.388Z,4702.50
2018-04-08T08:59:03.513Z,4747.50
2018-04-08T09:00:04.195Z,4792.50
2018-04-08T09:01:07.469Z,4798.13
2018-04-08T09:02:01.076Z,4792.50
2018-04-08T09:03:04.016Z,4775.63
2018-04-08T09:04:01.972Z,4741.88
2018-04-08T09:05:23.498Z,4725.00
2018-04-08T09:06:02.438Z,4713.75
2018-04-08T09:07:04.468Z,4691.25
2018-04-08T09:08:04.947Z,4674.38
2018-04-08T09:09:23.425Z,4691.25
2018-04-08T09:10:01.527Z,4696.88
2018-04-08T09:11:01.762Z,4730.63
2018-04-08T09:12:05.966Z,4792.50
2018-04-08T09:13:10.007Z,4798.13
2018-04-08T09:14:24.384Z,4803.75
2018-04-08T09:15:03.593Z,4809.38
2018-04-08T09:16:04.471Z,4848.75
2018-04-08T09:17:02.991Z,4888.13
2018-04-08T09:18:04.971Z,4893.75
2018-04-08T09:19:06.993Z,4921.88
2018-04-08T09:20:03.714Z,4944.38
2018-04-08T09:21:11.464Z,4961.25
2018-04-08T09:22:07.919Z,4955.63
2018-04-08T09:23:06.919Z,4978.13
2018-04-08T09:24:05.977Z,4955.63
2018-04-08T09:25:11.497Z,4966.88
2018-04-08T09:26:04.736Z,4961.25
2018-04-08T09:27:05.381Z,4966.88
2018-04-08T09:28:08.964Z,4995.00
2018-04-08T09:29:05.391Z,5023.13
2018-04-08T09:30:05.479Z,5017.50
2018-04-08T09:31:09.491Z,5006.25
2018-04-08T09:32:05.853Z,4995.00
2018-04-08T09:33:08.018Z,4972.50
2018-04-08T09:34:06.340Z,4989.38
2018-04-08T09:35:18.469Z,5006.25
2018-04-08T09:36:23.579Z,5028.75
2018-04-08T09:37:08.998Z,5034.38
2018-04-08T09:38:10.975Z,5017.50
2018-04-08T09:39:09.000Z,5028.75
2018-04-08T09:40:09.466Z,5028.75
2018-04-08T09:41:11.468Z,5051.25
2018-04-08T09:42:11.966Z,5034.38
2018-04-08T09:43:09.978Z,5011.88
2018-04-08T09:44:08.496Z,4966.88
2018-04-08T09:45:10.462Z,4983.75
2018-04-08T09:46:08.825Z,5011.88
2018-04-08T09:47:10.970Z,5023.13
2018-04-08T09:48:10.970Z,5023.13
2018-04-08T09:49:10.995Z,5051.25
2018-04-08T09:50:10.625Z,5034.38
2018-04-08T09:51:09.835Z,5023.13
2018-04-08T09:52:10.068Z,5040.00
2018-04-08T09:53:32.998Z,5006.25
2018-04-08T09:54:10.427Z,4983.75
2018-04-08T09:55:12.494Z,4983.75
2018-04-08T09:56:12.463Z,5000.63
2018-04-08T09:57:12.965Z,5011.88
2018-04-08T09:58:19.003Z,5017.50
2018-04-08T09:59:13.932Z,5011.88
2018-04-08T10:00:15.464Z,5006.25
2018-04-08T10:01:11.816Z,5000.63
2018-04-08T10:02:16.009Z,5011.88
2018-04-08T10:03:12.265Z,5011.88
2018-04-08T10:04:12.952Z,5051.25
2018-04-08T10:05:14.471Z,5051.25
2018-04-08T10:06:14.513Z,5045.63
2018-04-08T10:07:16.482Z,5062.50
2018-04-08T10:08:28.994Z,5051.25
2018-04-08T10:09:13.240Z,5051.25
2018-04-08T10:10:15.027Z,5034.38
2018-04-08T10:11:15.470Z,5028.75
2018-04-08T10:12:16.468Z,5000.63
2018-04-08T10:13:15.964Z,5006.25
2018-04-08T10:14:15.960Z,5000.63
2018-04-08T10:15:16.472Z,4983.75
2018-04-08T10:16:17.475Z,4972.50
2018-04-08T10:17:16.980Z,4972.50
2018-04-08T10:18:17.024Z,4966.88
2018-04-08T10:19:15.515Z,4944.38
2018-04-08T10:20:18.500Z,4950.00
2018-04-08T10:21:17.477Z,4944.38
2018-04-08T10:22:18.016Z,4927.50
2018-04-08T10:23:17.987Z,4921.88
2018-04-08T10:24:20.421Z,4905.00
2018-04-08T10:25:16.801Z,4888.13
2018-04-08T10:26:17.035Z,4893.75
2018-04-08T10:27:38.284Z,4921.88
2018-04-08T10:28:25.489Z,4899.38
2018-04-08T10:29:17.760Z,4893.75
2018-04-08T10:30:19.472Z,4893.75
2018-04-08T10:31:18.090Z,4910.63
2018-04-08T10:32:23.970Z,4944.38
2018-04-08T10:33:18.452Z,4921.88
2018-04-08T10:34:22.466Z,4905.00
2018-04-08T10:35:20.532Z,4905.00
2018-04-08T10:36:19.110Z,4848.75
2018-04-08T10:37:19.359Z,4820.63
2018-04-08T10:38:25.964Z,4803.75
2018-04-08T10:39:21.506Z,4792.50
2018-04-08T10:40:21.511Z,4803.75
2018-04-08T10:41:20.115Z,4843.13
2018-04-08T10:42:30.966Z,4854.38
2018-04-08T10:43:23.480Z,4888.13
2018-04-08T10:44:21.436Z,4916.25
2018-04-08T10:45:20.974Z,4950.00
2018-04-08T10:46:21.108Z,4921.88
2018-04-08T10:47:22.231Z,4876.88
2018-04-08T10:48:24.969Z,4809.38
2018-04-08T10:49:21.687Z,4792.50
2018-04-08T10:50:24.492Z,4792.50
2018-04-08T10:51:22.018Z,4809.38
2018-04-08T10:52:23.962Z,4803.75
2018-04-08T10:53:23.967Z,4803.75
2018-04-08T10:54:23.451Z,4770.00
2018-04-08T10:55:25.465Z,4803.75
2018-04-08T10:56:22.811Z,4837.50
2018-04-08T10:57:26.974Z,4854.38
2018-04-08T10:58:23.224Z,4843.13
2018-04-08T10:59:38.958Z,4820.63
2018-04-08T11:00:25.481Z,4848.75
2018-04-08T11:01:26.462Z,4803.75
2018-04-08T11:02:24.080Z,4781.25
2018-04-08T11:03:24.297Z,4730.63
2018-04-08T11:04:26.475Z,4708.13
2018-04-08T11:05:24.700Z,4663.13
2018-04-08T11:06:25.326Z,4646.25
2018-04-08T11:07:26.199Z,4646.25
2018-04-08T11:08:25.297Z,4680.00
2018-04-08T11:09:31.463Z,4629.38
2018-04-08T11:10:25.681Z,4612.50
2018-04-08T11:11:27.460Z,4595.63
2018-04-08T11:12:26.125Z,4578.75
2018-04-08T11:13:28.597Z,4606.88
2018-04-08T11:14:30.917Z,4618.13
2018-04-08T11:15:28.518Z,4612.50
2018-04-08T11:16:48.026Z,4601.25
2018-04-08T11:17:27.185Z,4584.38
2018-04-08T11:18:30.970Z,4590.00
2018-04-08T11:19:27.450Z,4629.38
2018-04-08T11:20:27.699Z,4618.13
2018-04-08T11:21:27.919Z,4646.25
2018-04-08T11:22:29.969Z,4646.25
2018-04-08T11:23:28.242Z,4674.38
2018-04-08T11:24:30.415Z,4640.63
2018-04-08T11:25:30.460Z,4635.00
2018-04-08T11:26:29.693Z,4629.38
2018-04-08T11:27:28.927Z,4612.50
2018-04-08T11:28:33.012Z,4612.50
2018-04-08T11:29:30.967Z,4567.50
2018-04-08T11:30:33.453Z,4556.25
2018-04-08T11:31:29.877Z,4545.00
2018-04-08T11:32:31.479Z,4561.88
2018-04-08T11:33:31.457Z,4550.63
2018-04-08T11:34:32.000Z,4533.75
2018-04-08T11:35:31.447Z,4516.88
2018-04-08T11:36:30.694Z,4511.25
2018-04-08T11:37:30.935Z,4500.00
2018-04-08T11:38:32.959Z,4455.00
2018-04-08T11:39:31.356Z,4449.38
2018-04-08T11:40:33.465Z,4443.75
2018-04-08T11:41:33.758Z,4449.38
2018-04-08T11:42:33.516Z,4443.75
2018-04-08T11:43:34.030Z,4426.88
2018-04-08T11:44:32.366Z,4398.75
2018-04-08T11:45:32.600Z,4404.38
2018-04-08T11:46:32.857Z,4387.50
2018-04-08T11:47:35.963Z,4381.88
2018-04-08T11:48:33.183Z,4387.50
2018-04-08T11:49:35.922Z,4376.25
2018-04-08T11:50:35.481Z,4393.13
2018-04-08T11:51:35.874Z,4398.75
2018-04-08T11:52:35.955Z,4381.88
2018-04-08T11:53:35.963Z,4381.88
2018-04-08T11:54:34.340Z,4348.13
2018-04-08T11:55:35.971Z,4314.38
2018-04-08T11:56:34.747Z,4308.75
2018-04-08T11:57:36.106Z,4308.75
2018-04-08T11:58:35.131Z,4291.88
2018-04-08T11:59:36.964Z,4269.38
2018-04-08T12:00:41.477Z,4235.63
2018-04-08T12:01:35.878Z,4235.63
2018-04-08T12:02:35.997Z,4224.38
2018-04-08T12:03:37.252Z,4168.13
2018-04-08T12:04:36.362Z,4140.00
2018-04-08T12:05:36.584Z,4123.13
2018-04-08T12:06:38.453Z,4128.75
2018-04-08T12:07:38.964Z,4106.25
2018-04-08T12:08:38.357Z,4072.50
2018-04-08T12:09:39.464Z,4033.13
2018-04-08T12:10:41.931Z,4010.63
2018-04-08T12:11:41.450Z,3971.25
2018-04-08T12:12:41.963Z,3943.13
2018-04-08T12:13:39.821Z,3909.38
2018-04-08T12:14:40.474Z,3881.25
2018-04-08T12:15:40.459Z,3813.75
2018-04-08T12:16:39.970Z,3757.50
2018-04-08T12:17:40.919Z,3735.00
2018-04-08T12:18:39.408Z,3712.50
2018-04-08T12:19:40.419Z,3673.13
2018-04-08T12:20:40.841Z,3633.75
2018-04-08T12:21:42.940Z,3628.13
2018-04-08T12:22:44.008Z,3633.75
2018-04-08T12:23:42.942Z,3611.25
2018-04-08T12:24:42.462Z,3611.25
2018-04-08T12:25:42.460Z,3577.50
2018-04-08T12:26:40.958Z,3577.50
2018-04-08T12:27:48.961Z,3577.50
2018-04-08T12:28:42.434Z,3566.25
2018-04-08T12:29:41.679Z,3549.38
2018-04-08T12:30:42.944Z,3510.00
2018-04-08T12:31:43.996Z,3493.13
2018-04-08T12:32:43.365Z,3459.38
2018-04-08T12:33:43.601Z,3403.13
2018-04-08T12:34:50.470Z,3369.38
2018-04-08T12:35:47.928Z,3352.50
2018-04-08T12:36:43.327Z,3335.63
2018-04-08T12:37:43.499Z,3318.75